sensor_id;sensor_type;location;lat;lon;timestamp;temperature;humidity
5461;DHT22;2753;49.196;8.286;2023-04-01T00:01:40;10.30;99.90
5461;DHT22;2753;49.196;8.286;2023-04-01T00:04:06;10.30;99.90
5461;DHT22;2753;49.196;8.286;2023-04-01T00:06:32;10.30;99.90
5461;DHT22;2753;49.196;8.286;2023-04-01T00:08:57;10.30;99.90
5461;DHT22;2753;49.196;8.286;2023-04-01T00:11:23;10.20;99.90
5461;DHT22;2753;49.196;8.286;2023-04-01T00:13:49;10.20;99.90
5461;DHT22;2753;49.196;8.286;2023-04-01T00:16:15;10.30;99.90
5461;DHT22;2753;49.196;8.286;2023-04-01T00:18:41;10.30;99.90
5461;DHT22;2753;49.196;8.286;2023-04-01T00:21:06;10.30;99.90
5461;DHT22;2753;49.196;8.286;2023-04-01T00:23:32;10.30;99.90
5461;DHT22;2753;49.196;8.286;2023-04-01T00:26:02;10.30;99.90
5461;DHT22;2753;49.196;8.286;2023-04-01T00:28:28;10.30;99.90
5461;DHT22;2753;49.196;8.286;2023-04-01T00:30:54;10.30;99.90
5461;DHT22;2753;49.196;8.286;2023-04-01T00:33:19;10.40;99.90
5461;DHT22;2753;49.196;8.286;2023-04-01T00:35:46;10.30;99.90
5461;DHT22;2753;49.196;8.286;2023-04-01T00:38:12;10.30;99.90
5461;DHT22;2753;49.196;8.286;2023-04-01T00:40:41;10.30;99.90
5461;DHT22;2753;49.196;8.286;2023-04-01T00:43:16;10.40;99.90
5461;DHT22;2753;49.196;8.286;2023-04-01T00:45:45;10.40;99.90
5461;DHT22;2753;49.196;8.286;2023-04-01T00:48:30;10.40;99.90
5461;DHT22;2753;49.196;8.286;2023-04-01T00:51:00;10.40;99.90
5461;DHT22;2753;49.196;8.286;2023-04-01T00:53:28;10.40;99.90
5461;DHT22;2753;49.196;8.286;2023-04-01T00:56:05;10.40;99.90
5461;DHT22;2753;49.196;8.286;2023-04-01T00:58:36;10.40;99.90
5461;DHT22;2753;49.196;8.286;2023-04-01T01:01:04;10.40;99.90
5461;DHT22;2753;49.196;8.286;2023-04-01T01:03:31;10.40;99.90
5461;DHT22;2753;49.196;8.286;2023-04-01T01:09:16;10.40;99.90
5461;DHT22;2753;49.196;8.286;2023-04-01T01:11:48;10.40;99.90
5461;DHT22;2753;49.196;8.286;2023-04-01T01:14:36;10.40;99.90
5461;DHT22;2753;49.196;8.286;2023-04-01T01:22:36;10.40;99.90
5461;DHT22;2753;49.196;8.286;2023-04-01T01:36:42;10.50;99.90
5461;DHT22;2753;49.196;8.286;2023-04-01T01:39:11;10.50;99.90
5461;DHT22;2753;49.196;8.286;2023-04-01T01:41:39;10.50;99.90
5461;DHT22;2753;49.196;8.286;2023-04-01T01:44:07;10.50;99.90
5461;DHT22;2753;49.196;8.286;2023-04-01T01:46:33;10.50;99.90
5461;DHT22;2753;49.196;8.286;2023-04-01T01:49:00;10.50;99.90
5461;DHT22;2753;49.196;8.286;2023-04-01T01:51:27;10.50;99.90
5461;DHT22;2753;49.196;8.286;2023-04-01T01:53:53;10.50;99.90
5461;DHT22;2753;49.196;8.286;2023-04-01T01:56:22;10.50;99.90
5461;DHT22;2753;49.196;8.286;2023-04-01T01:58:52;10.50;99.90
5461;DHT22;2753;49.196;8.286;2023-04-01T02:01:26;10.50;99.90
5461;DHT22;2753;49.196;8.286;2023-04-01T02:03:53;10.50;99.90
5461;DHT22;2753;49.196;8.286;2023-04-01T02:06:21;10.50;99.90
5461;DHT22;2753;49.196;8.286;2023-04-01T02:11:34;10.50;99.90
5461;DHT22;2753;49.196;8.286;2023-04-01T02:14:15;10.50;99.90
5461;DHT22;2753;49.196;8.286;2023-04-01T02:17:00;10.50;99.90
5461;DHT22;2753;49.196;8.286;2023-04-01T02:19:32;10.50;99.90
5461;DHT22;2753;49.196;8.286;2023-04-01T02:22:03;10.50;99.90
5461;DHT22;2753;49.196;8.286;2023-04-01T02:24:30;10.50;99.90
5461;DHT22;2753;49.196;8.286;2023-04-01T02:26:57;10.40;99.90
5461;DHT22;2753;49.196;8.286;2023-04-01T02:29:24;10.50;99.90
5461;DHT22;2753;49.196;8.286;2023-04-01T02:31:53;10.50;99.90
5461;DHT22;2753;49.196;8.286;2023-04-01T02:34:21;10.50;99.90
5461;DHT22;2753;49.196;8.286;2023-04-01T02:36:50;10.50;99.90
5461;DHT22;2753;49.196;8.286;2023-04-01T02:39:16;10.50;99.90
5461;DHT22;2753;49.196;8.286;2023-04-01T02:41:43;10.50;99.90
5461;DHT22;2753;49.196;8.286;2023-04-01T02:44:11;10.50;99.90
5461;DHT22;2753;49.196;8.286;2023-04-01T02:46:37;10.50;99.90
5461;DHT22;2753;49.196;8.286;2023-04-01T02:49:03;10.50;99.90
5461;DHT22;2753;49.196;8.286;2023-04-01T02:51:28;10.50;99.90
5461;DHT22;2753;49.196;8.286;2023-04-01T02:53:54;10.50;99.90
5461;DHT22;2753;49.196;8.286;2023-04-01T02:56:20;10.50;99.90
5461;DHT22;2753;49.196;8.286;2023-04-01T02:58:47;10.50;99.90
5461;DHT22;2753;49.196;8.286;2023-04-01T03:01:13;10.50;99.90
5461;DHT22;2753;49.196;8.286;2023-04-01T03:03:39;10.50;99.90
5461;DHT22;2753;49.196;8.286;2023-04-01T03:06:06;10.50;99.90
5461;DHT22;2753;49.196;8.286;2023-04-01T03:08:31;10.50;99.90
5461;DHT22;2753;49.196;8.286;2023-04-01T03:10:57;10.50;99.90
5461;DHT22;2753;49.196;8.286;2023-04-01T03:13:23;10.60;99.90
5461;DHT22;2753;49.196;8.286;2023-04-01T03:15:48;10.50;99.90
5461;DHT22;2753;49.196;8.286;2023-04-01T03:18:14;10.50;99.90
5461;DHT22;2753;49.196;8.286;2023-04-01T03:20:40;10.50;99.90
5461;DHT22;2753;49.196;8.286;2023-04-01T03:23:05;10.50;99.90
5461;DHT22;2753;49.196;8.286;2023-04-01T03:25:31;10.50;99.90
5461;DHT22;2753;49.196;8.286;2023-04-01T03:27:57;10.50;99.90
5461;DHT22;2753;49.196;8.286;2023-04-01T03:30:25;10.50;99.90
5461;DHT22;2753;49.196;8.286;2023-04-01T03:32:51;10.50;99.90
5461;DHT22;2753;49.196;8.286;2023-04-01T03:35:17;10.50;99.90
5461;DHT22;2753;49.196;8.286;2023-04-01T03:37:42;10.50;99.90
5461;DHT22;2753;49.196;8.286;2023-04-01T03:40:08;10.50;99.90
5461;DHT22;2753;49.196;8.286;2023-04-01T03:42:34;10.50;99.90
5461;DHT22;2753;49.196;8.286;2023-04-01T03:45:00;10.40;99.90
5461;DHT22;2753;49.196;8.286;2023-04-01T03:47:26;10.40;99.90
5461;DHT22;2753;49.196;8.286;2023-04-01T03:49:52;10.40;99.90
5461;DHT22;2753;49.196;8.286;2023-04-01T03:52:17;10.40;99.90
5461;DHT22;2753;49.196;8.286;2023-04-01T03:54:43;10.40;99.90
5461;DHT22;2753;49.196;8.286;2023-04-01T03:57:09;10.30;99.90
5461;DHT22;2753;49.196;8.286;2023-04-01T03:59:34;10.30;99.90
5461;DHT22;2753;49.196;8.286;2023-04-01T04:02:00;10.10;99.90
5461;DHT22;2753;49.196;8.286;2023-04-01T04:04:26;10.10;99.90
5461;DHT22;2753;49.196;8.286;2023-04-01T04:06:52;10.00;99.90
5461;DHT22;2753;49.196;8.286;2023-04-01T04:09:18;10.00;99.90
5461;DHT22;2753;49.196;8.286;2023-04-01T04:11:43;9.90;99.90
5461;DHT22;2753;49.196;8.286;2023-04-01T04:14:09;9.90;99.90
5461;DHT22;2753;49.196;8.286;2023-04-01T04:16:36;9.90;99.90
5461;DHT22;2753;49.196;8.286;2023-04-01T04:19:02;9.80;99.90
5461;DHT22;2753;49.196;8.286;2023-04-01T04:21:28;9.80;99.90
5461;DHT22;2753;49.196;8.286;2023-04-01T04:23:54;9.70;99.90
5461;DHT22;2753;49.196;8.286;2023-04-01T04:26:20;9.80;99.90
5461;DHT22;2753;49.196;8.286;2023-04-01T04:28:46;9.80;99.90
5461;DHT22;2753;49.196;8.286;2023-04-01T04:31:12;9.70;99.90
5461;DHT22;2753;49.196;8.286;2023-04-01T04:33:43;9.70;99.90
5461;DHT22;2753;49.196;8.286;2023-04-01T04:36:08;9.80;99.90
5461;DHT22;2753;49.196;8.286;2023-04-01T04:38:34;9.70;99.90
5461;DHT22;2753;49.196;8.286;2023-04-01T04:41:00;9.80;99.90
5461;DHT22;2753;49.196;8.286;2023-04-01T04:43:25;9.80;99.90
5461;DHT22;2753;49.196;8.286;2023-04-01T04:45:51;9.70;99.90
5461;DHT22;2753;49.196;8.286;2023-04-01T04:48:17;9.80;99.90
5461;DHT22;2753;49.196;8.286;2023-04-01T04:50:50;9.80;99.90
5461;DHT22;2753;49.196;8.286;2023-04-01T04:53:18;9.70;99.90
5461;DHT22;2753;49.196;8.286;2023-04-01T04:55:45;9.70;99.90
5461;DHT22;2753;49.196;8.286;2023-04-01T04:58:12;9.70;99.90
5461;DHT22;2753;49.196;8.286;2023-04-01T05:00:37;9.80;99.90
5461;DHT22;2753;49.196;8.286;2023-04-01T05:03:03;9.80;99.90
5461;DHT22;2753;49.196;8.286;2023-04-01T05:05:29;9.80;99.90
5461;DHT22;2753;49.196;8.286;2023-04-01T05:07:54;9.80;99.90
5461;DHT22;2753;49.196;8.286;2023-04-01T05:10:20;9.80;99.90
5461;DHT22;2753;49.196;8.286;2023-04-01T05:12:46;9.80;99.90
5461;DHT22;2753;49.196;8.286;2023-04-01T05:15:12;9.80;99.90
5461;DHT22;2753;49.196;8.286;2023-04-01T05:17:37;9.80;99.90
5461;DHT22;2753;49.196;8.286;2023-04-01T05:20:03;9.80;99.90
5461;DHT22;2753;49.196;8.286;2023-04-01T05:22:29;9.80;99.90
5461;DHT22;2753;49.196;8.286;2023-04-01T05:24:55;9.90;99.90
5461;DHT22;2753;49.196;8.286;2023-04-01T05:27:21;9.80;99.90
5461;DHT22;2753;49.196;8.286;2023-04-01T05:29:46;9.80;99.90
5461;DHT22;2753;49.196;8.286;2023-04-01T05:32:12;9.80;99.90
5461;DHT22;2753;49.196;8.286;2023-04-01T05:34:38;9.80;99.90
5461;DHT22;2753;49.196;8.286;2023-04-01T05:37:03;9.90;99.90
5461;DHT22;2753;49.196;8.286;2023-04-01T05:39:29;9.90;99.90
5461;DHT22;2753;49.196;8.286;2023-04-01T05:41:55;9.90;99.90
5461;DHT22;2753;49.196;8.286;2023-04-01T05:44:21;9.90;99.90
5461;DHT22;2753;49.196;8.286;2023-04-01T05:46:46;9.90;99.90
5461;DHT22;2753;49.196;8.286;2023-04-01T05:49:12;9.90;99.90
5461;DHT22;2753;49.196;8.286;2023-04-01T05:51:37;9.90;99.90
5461;DHT22;2753;49.196;8.286;2023-04-01T05:54:04;9.90;99.90
5461;DHT22;2753;49.196;8.286;2023-04-01T05:56:30;9.90;99.90
5461;DHT22;2753;49.196;8.286;2023-04-01T05:58:56;9.90;99.90
5461;DHT22;2753;49.196;8.286;2023-04-01T06:01:21;9.90;99.90
5461;DHT22;2753;49.196;8.286;2023-04-01T06:03:47;9.90;99.90
5461;DHT22;2753;49.196;8.286;2023-04-01T06:06:24;10.00;99.90
5461;DHT22;2753;49.196;8.286;2023-04-01T06:08:51;10.00;99.90
5461;DHT22;2753;49.196;8.286;2023-04-01T06:11:25;10.00;99.90
5461;DHT22;2753;49.196;8.286;2023-04-01T06:17:05;10.00;99.90
5461;DHT22;2753;49.196;8.286;2023-04-01T06:30:49;10.00;99.90
5461;DHT22;2753;49.196;8.286;2023-04-01T06:46:59;10.10;99.90
5461;DHT22;2753;49.196;8.286;2023-04-01T06:49:38;10.10;99.90
5461;DHT22;2753;49.196;8.286;2023-04-01T06:54:54;10.00;99.90
5461;DHT22;2753;49.196;8.286;2023-04-01T06:57:58;10.00;99.90
5461;DHT22;2753;49.196;8.286;2023-04-01T07:00:32;10.00;99.90
5461;DHT22;2753;49.196;8.286;2023-04-01T07:05:42;9.90;99.90
5461;DHT22;2753;49.196;8.286;2023-04-01T07:08:21;9.90;99.90
5461;DHT22;2753;49.196;8.286;2023-04-01T07:11:01;9.80;99.90
5461;DHT22;2753;49.196;8.286;2023-04-01T07:16:27;9.80;99.90
5461;DHT22;2753;49.196;8.286;2023-04-01T07:21:48;9.80;99.90
5461;DHT22;2753;49.196;8.286;2023-04-01T07:24:37;9.30;99.90
5461;DHT22;2753;49.196;8.286;2023-04-01T07:27:08;9.80;99.90
5461;DHT22;2753;49.196;8.286;2023-04-01T07:29:34;9.80;99.90
5461;DHT22;2753;49.196;8.286;2023-04-01T07:42:57;9.80;99.90
5461;DHT22;2753;49.196;8.286;2023-04-01T08:02:07;9.60;99.90
5461;DHT22;2753;49.196;8.286;2023-04-01T08:07:11;9.60;99.90
5461;DHT22;2753;49.196;8.286;2023-04-01T08:15:23;9.60;99.90
5461;DHT22;2753;49.196;8.286;2023-04-01T08:25:39;9.70;99.90
5461;DHT22;2753;49.196;8.286;2023-04-01T08:28:20;9.70;99.90
5461;DHT22;2753;49.196;8.286;2023-04-01T08:31:04;9.70;99.90
5461;DHT22;2753;49.196;8.286;2023-04-01T08:33:32;9.70;99.90
5461;DHT22;2753;49.196;8.286;2023-04-01T08:38:49;9.70;99.90
5461;DHT22;2753;49.196;8.286;2023-04-01T08:49:45;9.80;99.90
5461;DHT22;2753;49.196;8.286;2023-04-01T08:52:35;9.80;99.90
5461;DHT22;2753;49.196;8.286;2023-04-01T08:55:27;9.90;99.90
5461;DHT22;2753;49.196;8.286;2023-04-01T08:58:25;9.90;99.90
5461;DHT22;2753;49.196;8.286;2023-04-01T09:12:31;10.00;99.90
5461;DHT22;2753;49.196;8.286;2023-04-01T09:29:49;10.10;99.90
5461;DHT22;2753;49.196;8.286;2023-04-01T09:32:47;10.10;99.90
5461;DHT22;2753;49.196;8.286;2023-04-01T09:38:36;10.20;99.90
5461;DHT22;2753;49.196;8.286;2023-04-01T10:11:21;10.50;99.90
5461;DHT22;2753;49.196;8.286;2023-04-01T10:30:58;10.70;99.90
5461;DHT22;2753;49.196;8.286;2023-04-01T11:24:43;10.90;99.90
5461;DHT22;2753;49.196;8.286;2023-04-01T11:30:14;10.90;99.90
5461;DHT22;2753;49.196;8.286;2023-04-01T12:00:03;11.10;99.90
5461;DHT22;2753;49.196;8.286;2023-04-01T12:08:38;11.10;99.90
5461;DHT22;2753;49.196;8.286;2023-04-01T12:14:33;11.10;99.90
5461;DHT22;2753;49.196;8.286;2023-04-01T12:22:22;11.10;99.90
5461;DHT22;2753;49.196;8.286;2023-04-01T12:25:03;11.20;99.90
5461;DHT22;2753;49.196;8.286;2023-04-01T12:36:15;11.10;99.90
5461;DHT22;2753;49.196;8.286;2023-04-01T12:51:16;11.20;99.90
5461;DHT22;2753;49.196;8.286;2023-04-01T12:55:45;11.20;99.90
5461;DHT22;2753;49.196;8.286;2023-04-01T12:58:41;11.20;99.90
5461;DHT22;2753;49.196;8.286;2023-04-01T13:01:22;11.20;99.90
5461;DHT22;2753;49.196;8.286;2023-04-01T13:06:56;11.30;99.90
5461;DHT22;2753;49.196;8.286;2023-04-01T13:15:14;11.30;99.90
5461;DHT22;2753;49.196;8.286;2023-04-01T13:31:24;11.30;99.90
5461;DHT22;2753;49.196;8.286;2023-04-01T13:37:05;11.40;99.90
5461;DHT22;2753;49.196;8.286;2023-04-01T13:43:23;11.40;99.90
5461;DHT22;2753;49.196;8.286;2023-04-01T14:00:10;11.40;99.90
5461;DHT22;2753;49.196;8.286;2023-04-01T14:03:01;11.40;99.90
5461;DHT22;2753;49.196;8.286;2023-04-01T14:08:36;11.40;99.90
5461;DHT22;2753;49.196;8.286;2023-04-01T14:11:36;11.50;99.90
5461;DHT22;2753;49.196;8.286;2023-04-01T14:14:45;11.50;99.90
5461;DHT22;2753;49.196;8.286;2023-04-01T14:17:42;11.50;99.90
5461;DHT22;2753;49.196;8.286;2023-04-01T14:23:12;11.60;99.90
5461;DHT22;2753;49.196;8.286;2023-04-01T14:36:43;11.60;99.90
5461;DHT22;2753;49.196;8.286;2023-04-01T14:42:33;11.50;99.90
5461;DHT22;2753;49.196;8.286;2023-04-01T14:48:13;11.50;99.90
5461;DHT22;2753;49.196;8.286;2023-04-01T14:50:49;11.50;99.90
5461;DHT22;2753;49.196;8.286;2023-04-01T14:55:51;11.60;99.90
5461;DHT22;2753;49.196;8.286;2023-04-01T14:58:19;11.60;99.90
5461;DHT22;2753;49.196;8.286;2023-04-01T15:20:22;11.60;99.90
5461;DHT22;2753;49.196;8.286;2023-04-01T15:22:57;11.60;99.90
5461;DHT22;2753;49.196;8.286;2023-04-01T15:36:53;11.50;99.90
5461;DHT22;2753;49.196;8.286;2023-04-01T15:42:40;11.60;99.90
5461;DHT22;2753;49.196;8.286;2023-04-01T15:53:25;11.60;99.90
5461;DHT22;2753;49.196;8.286;2023-04-01T16:01:18;11.50;99.90
5461;DHT22;2753;49.196;8.286;2023-04-01T16:12:07;11.50;99.90
5461;DHT22;2753;49.196;8.286;2023-04-01T16:18:08;11.50;99.90
5461;DHT22;2753;49.196;8.286;2023-04-01T16:20:52;11.50;99.90
5461;DHT22;2753;49.196;8.286;2023-04-01T16:34:54;11.40;99.90
5461;DHT22;2753;49.196;8.286;2023-04-01T16:40:42;11.40;99.90
5461;DHT22;2753;49.196;8.286;2023-04-01T16:51:32;11.40;99.90
5461;DHT22;2753;49.196;8.286;2023-04-01T16:54:51;11.40;99.90
5461;DHT22;2753;49.196;8.286;2023-04-01T17:02:28;11.30;99.90
5461;DHT22;2753;49.196;8.286;2023-04-01T17:05:01;11.30;99.90
5461;DHT22;2753;49.196;8.286;2023-04-01T17:08:06;11.30;99.90
5461;DHT22;2753;49.196;8.286;2023-04-01T17:10:55;11.30;99.90
5461;DHT22;2753;49.196;8.286;2023-04-01T17:35:26;11.10;99.90
5461;DHT22;2753;49.196;8.286;2023-04-01T17:43:12;11.10;99.90
5461;DHT22;2753;49.196;8.286;2023-04-01T17:45:57;11.00;99.90
5461;DHT22;2753;49.196;8.286;2023-04-01T18:02:36;10.90;99.90
5461;DHT22;2753;49.196;8.286;2023-04-01T18:24:24;10.80;99.90
5461;DHT22;2753;49.196;8.286;2023-04-01T18:27:22;10.80;99.90
5461;DHT22;2753;49.196;8.286;2023-04-01T18:29:53;10.80;99.90
5461;DHT22;2753;49.196;8.286;2023-04-01T18:32:46;10.80;99.90
5461;DHT22;2753;49.196;8.286;2023-04-01T18:38:40;10.70;99.90
5461;DHT22;2753;49.196;8.286;2023-04-01T18:49:52;10.70;99.90
5461;DHT22;2753;49.196;8.286;2023-04-01T18:52:48;10.70;99.90
5461;DHT22;2753;49.196;8.286;2023-04-01T18:57:52;10.70;99.90
5461;DHT22;2753;49.196;8.286;2023-04-01T19:00:21;10.70;99.90
5461;DHT22;2753;49.196;8.286;2023-04-01T19:05:49;10.70;99.90
5461;DHT22;2753;49.196;8.286;2023-04-01T19:08:27;10.70;99.90
5461;DHT22;2753;49.196;8.286;2023-04-01T19:21:35;10.70;99.90
5461;DHT22;2753;49.196;8.286;2023-04-01T19:35:44;10.60;99.90
5461;DHT22;2753;49.196;8.286;2023-04-01T19:38:31;10.60;99.90
5461;DHT22;2753;49.196;8.286;2023-04-01T19:57:55;10.60;99.90
5461;DHT22;2753;49.196;8.286;2023-04-01T20:00:54;10.60;99.90
5461;DHT22;2753;49.196;8.286;2023-04-01T20:03:37;10.60;99.90
5461;DHT22;2753;49.196;8.286;2023-04-01T20:14:50;10.60;99.90
5461;DHT22;2753;49.196;8.286;2023-04-01T20:17:39;10.60;99.90
5461;DHT22;2753;49.196;8.286;2023-04-01T20:33:06;10.40;99.90
5461;DHT22;2753;49.196;8.286;2023-04-01T20:36:06;10.40;99.90
5461;DHT22;2753;49.196;8.286;2023-04-01T20:41:27;10.40;99.90
5461;DHT22;2753;49.196;8.286;2023-04-01T20:44:10;10.40;99.90
5461;DHT22;2753;49.196;8.286;2023-04-01T21:12:11;10.30;99.90
5461;DHT22;2753;49.196;8.286;2023-04-01T21:14:54;10.30;99.90
5461;DHT22;2753;49.196;8.286;2023-04-01T21:23:04;10.30;99.90
5461;DHT22;2753;49.196;8.286;2023-04-01T21:31:43;10.30;99.90
5461;DHT22;2753;49.196;8.286;2023-04-01T21:36:37;10.30;99.90
5461;DHT22;2753;49.196;8.286;2023-04-01T21:44:42;10.30;99.90
5461;DHT22;2753;49.196;8.286;2023-04-01T22:07:19;10.20;99.90
5461;DHT22;2753;49.196;8.286;2023-04-01T22:12:33;10.20;99.90
5461;DHT22;2753;49.196;8.286;2023-04-01T22:15:40;10.20;99.90
5461;DHT22;2753;49.196;8.286;2023-04-01T22:18:25;10.20;99.90
5461;DHT22;2753;49.196;8.286;2023-04-01T22:21:05;10.20;99.90
5461;DHT22;2753;49.196;8.286;2023-04-01T22:23:39;10.20;99.90
5461;DHT22;2753;49.196;8.286;2023-04-01T22:26:36;10.20;99.90
5461;DHT22;2753;49.196;8.286;2023-04-01T22:34:57;10.10;99.90
5461;DHT22;2753;49.196;8.286;2023-04-01T22:40:25;10.00;99.90
5461;DHT22;2753;49.196;8.286;2023-04-01T22:43:03;10.00;99.90
5461;DHT22;2753;49.196;8.286;2023-04-01T22:48:46;10.00;99.90
5461;DHT22;2753;49.196;8.286;2023-04-01T22:56:23;10.00;99.90
5461;DHT22;2753;49.196;8.286;2023-04-01T22:59:19;10.10;99.90
5461;DHT22;2753;49.196;8.286;2023-04-01T23:02:09;10.00;99.90
5461;DHT22;2753;49.196;8.286;2023-04-01T23:04:42;10.00;99.90
5461;DHT22;2753;49.196;8.286;2023-04-01T23:09:58;10.00;99.90
5461;DHT22;2753;49.196;8.286;2023-04-01T23:12:27;10.00;99.90
5461;DHT22;2753;49.196;8.286;2023-04-01T23:14:58;10.00;99.90
5461;DHT22;2753;49.196;8.286;2023-04-01T23:17:31;10.00;99.90
5461;DHT22;2753;49.196;8.286;2023-04-01T23:20:17;10.10;99.90
5461;DHT22;2753;49.196;8.286;2023-04-01T23:23:00;10.00;99.90
5461;DHT22;2753;49.196;8.286;2023-04-01T23:30:59;10.00;99.90
5461;DHT22;2753;49.196;8.286;2023-04-01T23:33:30;10.00;99.90
5461;DHT22;2753;49.196;8.286;2023-04-01T23:36:10;9.90;99.90
5461;DHT22;2753;49.196;8.286;2023-04-01T23:38:39;9.90;99.90
5461;DHT22;2753;49.196;8.286;2023-04-01T23:41:09;9.80;99.90
5461;DHT22;2753;49.196;8.286;2023-04-01T23:43:43;9.80;99.90
5461;DHT22;2753;49.196;8.286;2023-04-01T23:46:12;9.80;99.90
5461;DHT22;2753;49.196;8.286;2023-04-01T23:48:41;9.80;99.90
5461;DHT22;2753;49.196;8.286;2023-04-01T23:51:22;9.80;99.90
5461;DHT22;2753;49.196;8.286;2023-04-01T23:54:01;9.80;99.90
5461;DHT22;2753;49.196;8.286;2023-04-01T23:56:48;9.80;99.90
5461;DHT22;2753;49.196;8.286;2023-04-01T23:59:16;9.80;99.90
